Time;durP1;ratioP1;P1;durP2;ratioP2;P2;SDS_P1;SDS_P2;PMS_P1;PMS_P2;Temp;Humidity;BMP_temperature;BMP_pressure;BME280_temperature;BME280_humidity;BME280_pressure;Samples;Min_cycle;Max_cycle;Signal;HPM_P1;HPM_P2
2021/04/29 00:01:35;;;;;;;;;;;14.90;61.20;;;;;;5053736;28;74960;-68
2021/04/29 00:04:01;;;;;;;;;;;14.80;61.10;;;;;;5051427;28;77460;-70
2021/04/29 00:06:26;;;;;;;;;;;14.80;61.20;;;;;;5051927;28;75833;-68
2021/04/29 00:08:52;;;;;;;;;;;14.80;60.90;;;;;;5051449;28;77091;-68
2021/04/29 00:11:18;;;;;;;;;;;14.70;60.80;;;;;;5053506;28;75013;-68
2021/04/29 00:13:43;;;;;;;;;;;14.70;61.80;;;;;;5051463;28;77205;-68
2021/04/29 00:16:09;;;;;;;;;;;14.70;61.90;;;;;;5053283;28;75033;-67
2021/04/29 00:18:34;;;;;;;;;;;14.80;62.20;;;;;;5051634;28;75378;-68
2021/04/29 00:21:00;;;;;;;;;;;14.70;61.50;;;;;;5053340;28;74557;-69
2021/04/29 00:23:27;;;;;;;;;;;14.60;61.60;;;;;;5053341;28;74493;-68
2021/04/29 00:25:53;;;;;;;;;;;14.60;62.00;;;;;;5050830;28;77141;-69
2021/04/29 00:28:19;;;;;;;;;;;14.60;61.80;;;;;;5051317;28;76118;-69
2021/04/29 00:30:44;;;;;;;;;;;14.60;62.10;;;;;;5052681;27;75599;-70
2021/04/29 00:33:10;;;;;;;;;;;14.50;62.50;;;;;;5051169;28;75393;-68
2021/04/29 00:35:35;;;;;;;;;;;14.60;62.40;;;;;;5053476;28;75218;-69
2021/04/29 00:38:01;;;;;;;;;;;14.50;62.70;;;;;;5051017;28;77694;-69
2021/04/29 00:40:27;;;;;;;;;;;14.50;62.80;;;;;;5052958;28;75099;-69
2021/04/29 00:42:52;;;;;;;;;;;14.40;62.90;;;;;;5051357;28;78122;-69
2021/04/29 00:45:18;;;;;;;;;;;14.50;63.20;;;;;;5053148;28;75638;-70
2021/04/29 00:47:43;;;;;;;;;;;14.40;63.40;;;;;;5052802;28;75184;-70
2021/04/29 00:50:10;;;;;;;;;;;14.40;63.40;;;;;;5050856;28;78522;-70
2021/04/29 00:52:36;;;;;;;;;;;14.40;63.20;;;;;;5051388;28;77187;-69
2021/04/29 00:55:02;;;;;;;;;;;14.40;63.30;;;;;;5052844;28;74579;-69
2021/04/29 00:57:28;;;;;;;;;;;14.50;63.20;;;;;;5051223;28;76466;-70
2021/04/29 00:59:54;;;;;;;;;;;14.40;63.90;;;;;;5052764;28;75233;-69
2021/04/29 01:02:21;;;;;;;;;;;14.40;63.80;;;;;;5052345;28;75166;-70
2021/04/29 01:04:47;;;;;;;;;;;14.40;63.60;;;;;;5050495;28;75346;-69
2021/04/29 01:07:14;;;;;;;;;;;14.40;63.50;;;;;;5050738;28;77151;-68
2021/04/29 01:09:44;;;;;;;;;;;14.40;63.90;;;;;;5052198;27;76722;-68
2021/04/29 01:12:12;;;;;;;;;;;14.30;64.40;;;;;;5050780;28;76458;-66
2021/04/29 01:14:39;;;;;;;;;;;14.30;64.70;;;;;;5051245;28;75208;-67
2021/04/29 01:17:06;;;;;;;;;;;14.20;65.20;;;;;;5052515;27;75316;-66
2021/04/29 01:19:42;;;;;;;;;;;14.20;66.00;;;;;;5052217;28;75252;-67
2021/04/29 01:22:08;;;;;;;;;;;14.20;66.20;;;;;;5051792;27;77343;-67
2021/04/29 01:24:38;;;;;;;;;;;14.20;66.20;;;;;;5052309;28;75214;-66
2021/04/29 01:27:04;;;;;;;;;;;14.20;66.20;;;;;;5052498;28;74862;-67
2021/04/29 01:29:31;;;;;;;;;;;14.20;66.10;;;;;;5050649;28;76959;-66
2021/04/29 01:31:57;;;;;;;;;;;14.10;66.40;;;;;;5050642;28;77867;-66
2021/04/29 01:34:23;;;;;;;;;;;14.20;66.10;;;;;;5050629;28;74506;-66
2021/04/29 01:36:51;;;;;;;;;;;14.20;66.60;;;;;;5051887;28;75734;-65
2021/04/29 01:39:18;;;;;;;;;;;14.10;67.20;;;;;;5087799;27;76427;-66
2021/04/29 01:41:45;;;;;;;;;;;14.10;67.40;;;;;;5054012;28;78759;-66
2021/04/29 01:44:11;;;;;;;;;;;14.10;67.50;;;;;;5055712;28;74961;-64
2021/04/29 01:46:37;;;;;;;;;;;14.10;66.80;;;;;;5053854;28;78278;-64
2021/04/29 01:49:03;;;;;;;;;;;14.10;67.60;;;;;;5055545;28;75576;-66
2021/04/29 01:51:30;;;;;;;;;;;14.00;67.30;;;;;;5055754;28;75038;-66
2021/04/29 01:53:55;;;;;;;;;;;14.00;68.30;;;;;;5053697;28;77636;-67
2021/04/29 01:56:21;;;;;;;;;;;14.00;68.70;;;;;;5054061;28;75344;-69
2021/04/29 01:58:47;;;;;;;;;;;14.00;68.70;;;;;;5055994;28;74569;-67
2021/04/29 02:01:13;;;;;;;;;;;14.00;68.40;;;;;;5055132;27;75132;-67
2021/04/29 02:03:38;;;;;;;;;;;14.00;68.70;;;;;;5053360;27;77211;-67
2021/04/29 02:06:04;;;;;;;;;;;14.00;68.80;;;;;;5055320;28;74560;-67
2021/04/29 02:08:30;;;;;;;;;;;14.00;68.70;;;;;;5055895;28;74370;-68
2021/04/29 02:10:56;;;;;;;;;;;14.00;68.70;;;;;;5052997;28;76295;-67
2021/04/29 02:13:23;;;;;;;;;;;14.00;68.90;;;;;;5087656;27;76331;-67
2021/04/29 02:15:51;;;;;;;;;;;14.10;68.70;;;;;;5055321;28;75162;-66
2021/04/29 02:18:20;;;;;;;;;;;14.00;69.30;;;;;;5053888;28;75432;-66
2021/04/29 02:20:47;;;;;;;;;;;14.10;69.50;;;;;;5054929;28;74401;-67
2021/04/29 02:23:15;;;;;;;;;;;14.00;69.10;;;;;;5053135;28;75322;-66
2021/04/29 02:25:42;;;;;;;;;;;14.00;69.30;;;;;;5053410;28;76796;-66
2021/04/29 02:28:08;;;;;;;;;;;14.00;69.30;;;;;;5053050;28;77696;-66
2021/04/29 02:30:33;;;;;;;;;;;14.00;69.30;;;;;;5055221;28;75339;-67
2021/04/29 02:32:59;;;;;;;;;;;14.00;69.50;;;;;;5053271;28;76779;-68
2021/04/29 02:35:25;;;;;;;;;;;13.90;69.80;;;;;;5054876;28;75554;-67
2021/04/29 02:37:52;;;;;;;;;;;13.90;69.80;;;;;;5053073;28;75889;-66
2021/04/29 02:40:19;;;;;;;;;;;13.90;70.40;;;;;;5053384;28;75399;-67
2021/04/29 02:42:45;;;;;;;;;;;13.90;70.50;;;;;;5053249;28;78589;-67
2021/04/29 02:45:12;;;;;;;;;;;13.90;71.40;;;;;;5054728;28;75797;-67
2021/04/29 02:47:38;;;;;;;;;;;13.90;71.10;;;;;;5055065;28;75375;-66
2021/04/29 02:50:05;;;;;;;;;;;13.90;70.70;;;;;;5053546;28;75168;-66
2021/04/29 02:52:31;;;;;;;;;;;14.00;70.70;;;;;;5053092;28;76444;-67
2021/04/29 02:54:57;;;;;;;;;;;14.00;69.90;;;;;;5054994;28;75759;-66
2021/04/29 02:57:23;;;;;;;;;;;13.90;70.60;;;;;;5053493;28;76838;-67
2021/04/29 02:59:49;;;;;;;;;;;13.90;70.60;;;;;;5054521;28;75003;-67
2021/04/29 03:02:15;;;;;;;;;;;13.90;70.80;;;;;;5054387;28;75170;-66
2021/04/29 03:04:41;;;;;;;;;;;13.90;70.50;;;;;;5052526;28;76335;-68
2021/04/29 03:07:07;;;;;;;;;;;13.80;70.90;;;;;;5052915;28;74660;-66
2021/04/29 03:09:33;;;;;;;;;;;13.90;71.00;;;;;;5054314;28;75378;-66
2021/04/29 03:11:58;;;;;;;;;;;13.90;71.00;;;;;;5052829;28;74571;-67
2021/04/29 03:14:24;;;;;;;;;;;13.80;70.90;;;;;;5052501;28;75405;-66
2021/04/29 03:16:49;;;;;;;;;;;13.70;71.70;;;;;;5054598;28;75694;-66
2021/04/29 03:19:15;;;;;;;;;;;13.80;71.60;;;;;;5053940;28;75188;-65
2021/04/29 03:21:40;;;;;;;;;;;13.80;71.40;;;;;;5052618;27;75189;-65
2021/04/29 03:24:07;;;;;;;;;;;13.80;72.20;;;;;;5052810;28;75652;-68
2021/04/29 03:26:33;;;;;;;;;;;13.80;71.80;;;;;;5052230;28;76908;-68
2021/04/29 03:28:59;;;;;;;;;;;13.80;71.60;;;;;;5053884;27;75571;-68
2021/04/29 03:31:27;;;;;;;;;;;13.80;72.10;;;;;;5054071;28;75021;-71
2021/04/29 03:33:52;;;;;;;;;;;13.80;71.90;;;;;;5053897;28;75758;-68
2021/04/29 03:36:18;;;;;;;;;;;13.80;71.80;;;;;;5053921;28;75143;-68
2021/04/29 03:38:44;;;;;;;;;;;13.80;71.90;;;;;;5053967;28;75482;-65
2021/04/29 03:41:10;;;;;;;;;;;13.70;72.10;;;;;;5052638;28;76980;-69
2021/04/29 03:43:35;;;;;;;;;;;13.70;71.70;;;;;;5053949;28;75461;-69
2021/04/29 03:46:01;;;;;;;;;;;13.70;72.10;;;;;;5086445;27;76385;-69
2021/04/29 03:48:27;;;;;;;;;;;13.70;72.30;;;;;;5052178;28;74609;-69
2021/04/29 03:50:52;;;;;;;;;;;13.70;72.20;;;;;;5052451;28;77879;-69
2021/04/29 03:53:18;;;;;;;;;;;13.80;72.30;;;;;;5052104;28;75364;-68
2021/04/29 03:55:44;;;;;;;;;;;13.80;72.30;;;;;;5053852;28;75608;-67
2021/04/29 03:58:09;;;;;;;;;;;13.90;72.50;;;;;;5054368;28;75146;-69
2021/04/29 04:00:35;;;;;;;;;;;13.90;72.50;;;;;;5052011;28;75091;-68
2021/04/29 04:03:00;;;;;;;;;;;13.80;72.30;;;;;;5053316;27;74603;-69
2021/04/29 04:05:26;;;;;;;;;;;13.70;72.10;;;;;;5051556;28;74832;-69
2021/04/29 04:07:52;;;;;;;;;;;13.70;72.50;;;;;;5052181;27;77214;-69
2021/04/29 04:10:17;;;;;;;;;;;13.70;72.30;;;;;;5052148;28;76205;-68
2021/04/29 04:12:43;;;;;;;;;;;13.60;72.40;;;;;;5053569;28;74390;-67
2021/04/29 04:15:09;;;;;;;;;;;13.60;72.70;;;;;;5052058;28;77143;-67
2021/04/29 04:17:35;;;;;;;;;;;13.60;72.80;;;;;;5053637;28;75715;-66
2021/04/29 04:20:00;;;;;;;;;;;13.60;73.10;;;;;;5053183;28;75700;-68
2021/04/29 04:22:26;;;;;;;;;;;13.70;73.20;;;;;;5053263;28;74429;-67
2021/04/29 04:24:51;;;;;;;;;;;13.70;73.30;;;;;;5053520;28;75718;-67
2021/04/29 04:27:17;;;;;;;;;;;13.70;73.20;;;;;;5051359;28;77231;-66
2021/04/29 04:29:43;;;;;;;;;;;13.70;73.20;;;;;;5051329;28;77078;-67
2021/04/29 04:32:08;;;;;;;;;;;13.70;73.10;;;;;;5053433;28;74440;-68
2021/04/29 04:34:34;;;;;;;;;;;13.70;72.90;;;;;;5051563;28;76434;-67
2021/04/29 04:36:59;;;;;;;;;;;13.70;72.80;;;;;;5051845;28;75444;-67
2021/04/29 04:39:26;;;;;;;;;;;13.70;73.00;;;;;;5051578;28;76386;-68
2021/04/29 04:41:51;;;;;;;;;;;13.70;73.10;;;;;;5051322;28;77325;-67
2021/04/29 04:44:17;;;;;;;;;;;13.70;72.80;;;;;;5051392;28;75352;-66
2021/04/29 04:46:43;;;;;;;;;;;13.70;73.10;;;;;;5052766;28;75241;-66
2021/04/29 04:49:08;;;;;;;;;;;13.70;72.90;;;;;;5050962;28;77101;-67
2021/04/29 04:51:34;;;;;;;;;;;13.70;72.70;;;;;;5053064;28;75026;-67
2021/04/29 04:54:00;;;;;;;;;;;13.70;73.20;;;;;;5051924;28;77291;-67
2021/04/29 04:56:27;;;;;;;;;;;13.80;72.90;;;;;;5051083;28;75449;-67
2021/04/29 04:58:53;;;;;;;;;;;13.80;72.90;;;;;;5051469;27;76142;-67
2021/04/29 05:01:19;;;;;;;;;;;13.80;72.90;;;;;;5051228;27;75768;-69
2021/04/29 05:03:44;;;;;;;;;;;13.70;73.00;;;;;;5052251;28;74532;-68
2021/04/29 05:06:10;;;;;;;;;;;13.80;73.20;;;;;;5052347;28;75190;-69
2021/04/29 05:08:35;;;;;;;;;;;13.80;73.00;;;;;;5050731;28;77584;-69
2021/04/29 05:11:01;;;;;;;;;;;13.90;73.00;;;;;;5052431;27;75304;-68
2021/04/29 05:13:27;;;;;;;;;;;13.90;72.80;;;;;;5050040;27;74666;-68
2021/04/29 05:15:52;;;;;;;;;;;13.90;72.40;;;;;;5053079;28;74597;-68
2021/04/29 05:18:18;;;;;;;;;;;13.80;72.50;;;;;;5050822;28;76340;-68
2021/04/29 05:20:44;;;;;;;;;;;13.80;72.70;;;;;;5050749;28;76636;-69
2021/04/29 05:23:09;;;;;;;;;;;13.80;72.90;;;;;;5050885;28;75898;-68
2021/04/29 05:25:36;;;;;;;;;;;13.80;73.20;;;;;;5052108;28;75355;-68
2021/04/29 05:28:02;;;;;;;;;;;13.80;72.50;;;;;;5050820;27;75357;-67
2021/04/29 05:30:28;;;;;;;;;;;13.70;72.40;;;;;;5050717;28;74688;-66
2021/04/29 05:32:54;;;;;;;;;;;13.80;73.00;;;;;;5044275;28;76092;-67
2021/04/29 05:35:20;;;;;;;;;;;13.70;73.00;;;;;;5047680;28;77780;-68
2021/04/29 05:37:45;;;;;;;;;;;13.70;73.40;;;;;;5039256;28;76950;-69
2021/04/29 05:40:12;;;;;;;;;;;13.70;73.80;;;;;;5050908;27;75805;-67
2021/04/29 05:42:39;;;;;;;;;;;13.70;74.00;;;;;;5050065;28;75145;-69
2021/04/29 05:45:05;;;;;;;;;;;13.80;73.40;;;;;;5051784;27;75207;-70
2021/04/29 05:47:30;;;;;;;;;;;13.80;73.30;;;;;;5050723;28;74890;-64
2021/04/29 05:49:56;;;;;;;;;;;13.80;73.20;;;;;;5051950;27;75653;-67
2021/04/29 05:52:22;;;;;;;;;;;13.80;73.40;;;;;;5050112;28;75408;-72
2021/04/29 05:54:47;;;;;;;;;;;13.80;73.20;;;;;;5049770;28;76195;-66
2021/04/29 05:57:13;;;;;;;;;;;13.80;73.20;;;;;;5051677;27;74570;-69
2021/04/29 05:59:38;;;;;;;;;;;13.90;73.40;;;;;;5050315;28;75434;-68
2021/04/29 06:02:04;;;;;;;;;;;13.90;73.10;;;;;;5051467;28;75076;-69
2021/04/29 06:04:30;;;;;;;;;;;13.90;72.90;;;;;;5051274;27;75120;-71
2021/04/29 06:06:55;;;;;;;;;;;13.90;73.20;;;;;;5050217;28;74562;-72
2021/04/29 06:09:22;;;;;;;;;;;13.90;72.80;;;;;;5050330;28;77186;-69
2021/04/29 06:11:48;;;;;;;;;;;14.00;72.70;;;;;;5049439;28;76033;-63
2021/04/29 06:14:14;;;;;;;;;;;14.00;72.30;;;;;;5051711;27;75330;-69
2021/04/29 06:16:39;;;;;;;;;;;13.90;72.40;;;;;;5051845;27;74874;-66
2021/04/29 06:19:06;;;;;;;;;;;13.90;72.60;;;;;;5049902;28;75418;-67
2021/04/29 06:21:31;;;;;;;;;;;13.90;72.70;;;;;;5049230;28;77573;-71
2021/04/29 06:23:57;;;;;;;;;;;14.00;72.60;;;;;;5049808;27;75294;-67
2021/04/29 06:26:23;;;;;;;;;;;14.00;72.50;;;;;;5055203;28;75408;-67
2021/04/29 06:28:49;;;;;;;;;;;14.10;72.40;;;;;;5052304;28;75859;-69
2021/04/29 06:31:14;;;;;;;;;;;14.20;72.20;;;;;;5051730;28;77113;-68
2021/04/29 06:33:40;;;;;;;;;;;14.20;72.10;;;;;;5054703;28;75078;-68
2021/04/29 06:36:06;;;;;;;;;;;14.30;71.70;;;;;;5055002;28;75094;-72
2021/04/29 06:38:34;;;;;;;;;;;14.20;71.80;;;;;;5053577;28;75063;-67
2021/04/29 06:41:00;;;;;;;;;;;14.30;71.60;;;;;;5053194;28;78206;-67
2021/04/29 06:43:25;;;;;;;;;;;14.30;71.50;;;;;;5052800;28;77294;-66
2021/04/29 06:45:51;;;;;;;;;;;14.30;71.60;;;;;;5053019;28;77219;-62
2021/04/29 06:48:16;;;;;;;;;;;14.30;71.60;;;;;;5053350;28;78250;-67
2021/04/29 06:50:42;;;;;;;;;;;14.30;71.90;;;;;;5053094;28;76812;-67
2021/04/29 06:53:08;;;;;;;;;;;14.30;71.90;;;;;;5053451;28;75056;-69
2021/04/29 06:55:33;;;;;;;;;;;14.30;71.70;;;;;;5050978;28;74965;-68
2021/04/29 06:58:00;;;;;;;;;;;14.40;72.10;;;;;;5053698;27;76641;-67
2021/04/29 07:00:26;;;;;;;;;;;14.50;71.80;;;;;;5052526;28;76860;-67
2021/04/29 07:02:52;;;;;;;;;;;14.50;71.40;;;;;;5051565;28;77275;-67
2021/04/29 07:05:18;;;;;;;;;;;14.50;70.80;;;;;;5049739;28;76620;-68
2021/04/29 07:07:43;;;;;;;;;;;14.50;71.50;;;;;;5050651;28;75797;-68
2021/04/29 07:10:09;;;;;;;;;;;14.60;71.30;;;;;;5054348;27;74518;-68
2021/04/29 07:12:35;;;;;;;;;;;14.70;71.10;;;;;;5052021;28;78553;-68
2021/04/29 07:15:00;;;;;;;;;;;14.80;70.80;;;;;;5053970;27;75688;-68
2021/04/29 07:17:26;;;;;;;;;;;14.90;70.40;;;;;;5053130;28;76059;-68
2021/04/29 07:19:52;;;;;;;;;;;14.90;70.30;;;;;;5052857;28;76825;-67
2021/04/29 07:22:17;;;;;;;;;;;14.90;70.00;;;;;;5051996;28;76920;-67
2021/04/29 07:24:43;;;;;;;;;;;14.90;70.10;;;;;;5052296;28;75930;-68
2021/04/29 07:27:09;;;;;;;;;;;14.90;70.10;;;;;;5054001;28;74439;-67
2021/04/29 07:29:35;;;;;;;;;;;15.20;69.70;;;;;;5052343;28;77624;-67
2021/04/29 07:32:01;;;;;;;;;;;15.30;69.00;;;;;;5053759;28;74910;-67
2021/04/29 07:34:26;;;;;;;;;;;15.40;68.90;;;;;;5052395;28;75565;-67
2021/04/29 07:36:52;;;;;;;;;;;15.40;68.80;;;;;;5051891;27;75379;-67
2021/04/29 07:39:18;;;;;;;;;;;15.40;68.50;;;;;;5054214;28;75190;-65
2021/04/29 07:41:43;;;;;;;;;;;15.50;68.60;;;;;;5051778;28;76521;-68
2021/04/29 07:44:09;;;;;;;;;;;15.40;68.50;;;;;;5051868;28;77617;-68
2021/04/29 07:46:35;;;;;;;;;;;15.40;68.30;;;;;;5053773;28;74446;-68
2021/04/29 07:49:01;;;;;;;;;;;15.40;68.30;;;;;;5053672;28;75275;-67
2021/04/29 07:51:26;;;;;;;;;;;15.20;68.50;;;;;;5052018;28;77516;-68
2021/04/29 07:53:52;;;;;;;;;;;15.00;69.00;;;;;;5051840;28;77198;-66
2021/04/29 07:56:18;;;;;;;;;;;14.90;69.80;;;;;;5052493;27;75138;-69
2021/04/29 07:58:43;;;;;;;;;;;14.70;70.90;;;;;;5053051;27;75594;-67
2021/04/29 08:01:09;;;;;;;;;;;14.60;71.70;;;;;;5053549;27;75171;-68
2021/04/29 08:03:35;;;;;;;;;;;14.60;72.40;;;;;;5053116;27;75485;-69
2021/04/29 08:06:00;;;;;;;;;;;14.70;73.20;;;;;;5051781;28;75374;-68
2021/04/29 08:08:26;;;;;;;;;;;14.60;72.80;;;;;;5052591;27;75855;-68
2021/04/29 08:10:52;;;;;;;;;;;14.70;72.70;;;;;;5050711;28;78140;-67
2021/04/29 08:13:17;;;;;;;;;;;14.90;72.80;;;;;;5051604;28;75463;-68
2021/04/29 08:15:43;;;;;;;;;;;15.00;71.50;;;;;;5053297;28;75319;-68
2021/04/29 08:18:09;;;;;;;;;;;15.20;70.80;;;;;;5053124;28;74908;-67
2021/04/29 08:20:35;;;;;;;;;;;15.20;70.50;;;;;;5052972;28;75362;-67
2021/04/29 08:23:01;;;;;;;;;;;15.20;71.00;;;;;;5052354;28;75125;-68
2021/04/29 08:25:27;;;;;;;;;;;15.30;71.00;;;;;;5051257;28;77642;-68
2021/04/29 08:27:52;;;;;;;;;;;15.30;70.70;;;;;;5053092;28;75466;-68
2021/04/29 08:30:18;;;;;;;;;;;15.50;70.30;;;;;;5050491;28;76488;-67
2021/04/29 08:32:44;;;;;;;;;;;15.70;69.50;;;;;;5052721;27;74648;-69
2021/04/29 08:35:09;;;;;;;;;;;15.70;69.10;;;;;;5052737;28;75225;-69
2021/04/29 08:37:35;;;;;;;;;;;15.70;68.90;;;;;;5052115;27;75097;-68
2021/04/29 08:40:02;;;;;;;;;;;15.60;69.20;;;;;;5051480;28;77979;-68
2021/04/29 08:42:28;;;;;;;;;;;15.60;69.50;;;;;;5052793;27;74627;-68
2021/04/29 08:44:54;;;;;;;;;;;15.70;69.00;;;;;;5052467;27;75624;-67
2021/04/29 08:47:20;;;;;;;;;;;15.70;68.60;;;;;;5049899;27;75204;-67
2021/04/29 08:49:46;;;;;;;;;;;15.70;68.70;;;;;;5050620;27;75134;-67
2021/04/29 08:52:11;;;;;;;;;;;15.80;68.90;;;;;;5052801;27;74474;-68
2021/04/29 08:54:38;;;;;;;;;;;16.00;68.80;;;;;;5050463;28;77399;-68
2021/04/29 08:57:05;;;;;;;;;;;16.20;68.30;;;;;;5050620;28;74977;-66
2021/04/29 08:59:30;;;;;;;;;;;16.40;66.90;;;;;;5049986;28;77928;-68
2021/04/29 09:01:56;;;;;;;;;;;16.10;67.70;;;;;;5052614;28;75167;-62
2021/04/29 09:04:22;;;;;;;;;;;15.90;68.90;;;;;;5045572;27;75987;-65
2021/04/29 09:06:49;;;;;;;;;;;15.50;69.90;;;;;;5032917;28;95151;-65
2021/04/29 09:09:16;;;;;;;;;;;15.00;71.60;;;;;;5050359;28;75910;-68
2021/04/29 09:11:48;;;;;;;;;;;14.60;74.00;;;;;;5050993;28;75763;-68
2021/04/29 09:14:13;;;;;;;;;;;14.30;75.20;;;;;;5052479;27;75004;-67
2021/04/29 09:16:41;;;;;;;;;;;14.20;75.70;;;;;;5052340;27;75202;-68
2021/04/29 09:19:26;;;;;;;;;;;14.10;76.10;;;;;;5052649;28;75929;-68
2021/04/29 09:21:53;;;;;;;;;;;14.20;76.40;;;;;;5050226;28;75381;-66
2021/04/29 09:24:29;;;;;;;;;;;14.20;75.90;;;;;;5041650;28;77597;-67
2021/04/29 09:26:55;;;;;;;;;;;14.40;76.00;;;;;;5052172;28;75295;-67
2021/04/29 09:29:20;;;;;;;;;;;14.40;76.10;;;;;;5052561;28;75283;-67
2021/04/29 09:31:46;;;;;;;;;;;14.50;75.50;;;;;;5050997;28;75291;-68
2021/04/29 09:34:12;;;;;;;;;;;14.70;74.80;;;;;;5050539;28;74664;-68
2021/04/29 09:36:44;;;;;;;;;;;14.80;75.10;;;;;;5052049;28;75231;-67
2021/04/29 09:39:11;;;;;;;;;;;15.10;74.10;;;;;;5052275;28;74897;-68
2021/04/29 09:41:38;;;;;;;;;;;15.50;73.80;;;;;;5051944;28;75217;-68
2021/04/29 09:44:08;;;;;;;;;;;15.90;72.50;;;;;;5051739;28;75201;-68
2021/04/29 09:46:42;;;;;;;;;;;16.30;71.60;;;;;;5050400;28;77599;-68
2021/04/29 09:49:26;;;;;;;;;;;16.70;68.80;;;;;;5049390;28;75264;-66
2021/04/29 09:51:51;;;;;;;;;;;16.80;68.10;;;;;;5047114;28;77405;-68
2021/04/29 09:54:24;;;;;;;;;;;17.10;67.20;;;;;;5051407;27;75726;-67
2021/04/29 09:56:54;;;;;;;;;;;17.30;66.70;;;;;;5050710;28;75274;-68
2021/04/29 09:59:19;;;;;;;;;;;17.40;65.60;;;;;;5052601;27;75421;-67
2021/04/29 10:01:45;;;;;;;;;;;17.50;65.50;;;;;;5053973;28;77880;-68
2021/04/29 10:04:11;;;;;;;;;;;17.50;65.00;;;;;;5053540;28;76327;-68
2021/04/29 10:06:36;;;;;;;;;;;17.80;64.40;;;;;;5055231;27;75427;-67
2021/04/29 10:09:03;;;;;;;;;;;17.80;63.00;;;;;;5054081;28;78327;-68
2021/04/29 10:11:29;;;;;;;;;;;17.60;63.40;;;;;;5053413;28;76602;-67
2021/04/29 10:13:55;;;;;;;;;;;17.40;64.20;;;;;;5053671;28;75162;-65
2021/04/29 10:16:21;;;;;;;;;;;17.40;64.50;;;;;;5055224;27;75159;-67
2021/04/29 10:18:47;;;;;;;;;;;17.40;61.40;;;;;;5055103;27;75023;-66
2021/04/29 10:21:13;;;;;;;;;;;17.40;61.10;;;;;;5053794;28;77743;-67
2021/04/29 10:23:38;;;;;;;;;;;17.60;60.20;;;;;;5054927;27;74733;-63
2021/04/29 10:26:05;;;;;;;;;;;18.00;60.30;;;;;;5055312;27;75687;-68
2021/04/29 10:28:35;;;;;;;;;;;18.50;60.10;;;;;;5053156;28;76286;-68
2021/04/29 10:31:13;;;;;;;;;;;18.90;57.60;;;;;;5052202;28;75480;-67
2021/04/29 10:33:41;;;;;;;;;;;19.50;56.70;;;;;;5051058;28;78003;-68
2021/04/29 10:36:11;;;;;;;;;;;20.10;55.10;;;;;;5053267;28;76203;-68
2021/04/29 10:38:37;;;;;;;;;;;20.60;52.90;;;;;;5054902;27;75065;-69
2021/04/29 10:41:15;;;;;;;;;;;21.00;49.50;;;;;;5055145;27;75143;-67
2021/04/29 10:43:41;;;;;;;;;;;20.50;50.70;;;;;;5053372;28;77129;-68
2021/04/29 10:46:07;;;;;;;;;;;19.80;53.50;;;;;;5053196;28;77647;-68
2021/04/29 10:48:34;;;;;;;;;;;20.00;54.90;;;;;;5052904;28;76624;-66
2021/04/29 10:51:10;;;;;;;;;;;22.10;50.00;;;;;;5053250;28;75230;-69
2021/04/29 10:53:36;;;;;;;;;;;23.20;43.70;;;;;;5053100;28;75516;-69
2021/04/29 10:56:03;;;;;;;;;;;21.90;46.80;;;;;;5054685;27;75220;-68
2021/04/29 10:58:29;;;;;;;;;;;21.70;47.40;;;;;;5053101;28;77252;-68
2021/04/29 11:01:05;;;;;;;;;;;22.10;45.70;;;;;;5054763;27;75181;-68
2021/04/29 11:03:32;;;;;;;;;;;21.10;47.80;;;;;;5053001;28;77462;-69
2021/04/29 11:06:12;;;;;;;;;;;19.80;50.40;;;;;;5052631;28;77953;-69
2021/04/29 11:08:39;;;;;;;;;;;19.40;52.90;;;;;;5052721;28;77234;-69
2021/04/29 11:11:05;;;;;;;;;;;21.50;50.60;;;;;;5053955;27;74509;-69
2021/04/29 11:13:31;;;;;;;;;;;24.50;42.60;;;;;;5035901;28;75992;-68
2021/04/29 11:15:58;;;;;;;;;;;24.50;41.30;;;;;;5053607;27;75122;-69
2021/04/29 11:18:23;;;;;;;;;;;23.10;43.80;;;;;;5053964;27;75463;-69
2021/04/29 11:20:53;;;;;;;;;;;21.60;46.40;;;;;;5054249;28;75161;-70
2021/04/29 11:23:20;;;;;;;;;;;20.50;48.70;;;;;;5054324;27;75224;-69
2021/04/29 11:25:46;;;;;;;;;;;21.70;48.60;;;;;;5053952;27;75140;-69
2021/04/29 11:28:12;;;;;;;;;;;24.00;42.10;;;;;;5054243;28;75167;-69
2021/04/29 11:30:39;;;;;;;;;;;22.80;42.70;;;;;;5053914;27;75124;-68
2021/04/29 11:33:08;;;;;;;;;;;22.50;45.20;;;;;;5053826;28;74571;-69
2021/04/29 11:35:35;;;;;;;;;;;23.30;42.50;;;;;;5052486;28;75269;-70
2021/04/29 11:38:01;;;;;;;;;;;22.40;44.70;;;;;;5051870;28;75314;-69
2021/04/29 11:40:28;;;;;;;;;;;21.50;45.90;;;;;;5052506;28;76377;-69
2021/04/29 11:42:55;;;;;;;;;;;20.90;47.70;;;;;;5053753;28;75317;-69
2021/04/29 11:45:26;;;;;;;;;;;20.50;47.70;;;;;;5053474;27;75231;-68
2021/04/29 11:48:02;;;;;;;;;;;20.30;49.30;;;;;;5053657;27;75448;-68
2021/04/29 11:50:40;;;;;;;;;;;19.90;49.60;;;;;;5051701;28;77270;-68
2021/04/29 11:53:17;;;;;;;;;;;19.70;50.50;;;;;;5052132;28;77118;-69
2021/04/29 11:55:54;;;;;;;;;;;19.40;50.80;;;;;;5051764;28;75339;-70
2021/04/29 11:58:20;;;;;;;;;;;19.30;51.00;;;;;;5050061;28;76076;-70
2021/04/29 12:00:47;;;;;;;;;;;19.60;51.80;;;;;;5051544;27;75047;-70
2021/04/29 12:03:14;;;;;;;;;;;20.40;50.30;;;;;;5051772;28;76231;-70
2021/04/29 12:05:44;;;;;;;;;;;21.80;46.90;;;;;;5051713;28;75078;-70
2021/04/29 12:08:15;;;;;;;;;;;21.90;45.90;;;;;;5051673;28;78447;-66
2021/04/29 12:10:47;;;;;;;;;;;23.40;44.40;;;;;;5051732;28;76752;-69
2021/04/29 12:13:13;;;;;;;;;;;26.90;37.00;;;;;;5052076;28;75221;-70
2021/04/29 12:15:39;;;;;;;;;;;28.90;34.20;;;;;;5053251;28;75218;-69
2021/04/29 12:18:08;;;;;;;;;;;27.90;33.40;;;;;;5051728;28;75589;-69
2021/04/29 12:20:34;;;;;;;;;;;29.30;33.90;;;;;;5050619;28;77087;-69
2021/04/29 12:23:00;;;;;;;;;;;31.10;29.00;;;;;;5051916;27;75182;-70
2021/04/29 12:25:25;;;;;;;;;;;30.10;27.80;;;;;;5051134;28;76324;-70
2021/04/29 12:27:51;;;;;;;;;;;27.80;31.90;;;;;;5051686;28;75348;-70
2021/04/29 12:30:17;;;;;;;;;;;29.40;30.20;;;;;;5052265;28;75100;-68
2021/04/29 12:32:44;;;;;;;;;;;28.90;32.10;;;;;;5052606;28;76927;-69
2021/04/29 12:35:11;;;;;;;;;;;30.80;30.90;;;;;;5052609;28;75251;-70
2021/04/29 12:37:48;;;;;;;;;;;31.10;30.20;;;;;;5051159;28;76277;-69
2021/04/29 12:40:22;;;;;;;;;;;28.90;31.30;;;;;;5052725;28;75711;-70
2021/04/29 12:42:47;;;;;;;;;;;29.30;31.80;;;;;;5052523;28;74538;-69
2021/04/29 12:45:13;;;;;;;;;;;28.30;32.20;;;;;;5052518;28;75360;-69
2021/04/29 12:47:39;;;;;;;;;;;29.60;31.50;;;;;;5052990;28;74351;-68
2021/04/29 12:50:05;;;;;;;;;;;31.20;29.50;;;;;;5052660;28;75259;-69
2021/04/29 12:52:31;;;;;;;;;;;33.00;28.80;;;;;;5052515;28;75190;-69
2021/04/29 12:54:57;;;;;;;;;;;33.90;27.70;;;;;;5052701;28;74537;-69
2021/04/29 12:57:29;;;;;;;;;;;33.40;27.30;;;;;;5052355;28;75698;-69
2021/04/29 12:59:55;;;;;;;;;;;34.40;26.30;;;;;;5052350;28;75358;-69
2021/04/29 13:02:25;;;;;;;;;;;35.20;24.40;;;;;;5049189;28;75418;-69
2021/04/29 13:05:02;;;;;;;;;;;35.80;25.60;;;;;;5048338;28;75673;-69
2021/04/29 13:07:28;;;;;;;;;;;33.60;25.30;;;;;;5052406;28;74589;-68
2021/04/29 13:09:54;;;;;;;;;;;32.00;27.00;;;;;;5052781;28;75261;-69
2021/04/29 13:12:21;;;;;;;;;;;32.40;26.20;;;;;;5050287;28;77095;-69
2021/04/29 13:14:47;;;;;;;;;;;30.70;27.00;;;;;;5050907;28;75275;-70
2021/04/29 13:17:15;;;;;;;;;;;28.40;30.00;;;;;;5051992;28;74597;-69
2021/04/29 13:19:44;;;;;;;;;;;27.40;33.00;;;;;;5052522;28;74451;-70
2021/04/29 13:22:10;;;;;;;;;;;27.10;32.60;;;;;;5050512;28;75626;-69
2021/04/29 13:24:36;;;;;;;;;;;27.20;33.00;;;;;;5050596;28;74539;-68
2021/04/29 13:27:02;;;;;;;;;;;28.60;32.30;;;;;;5050523;28;77571;-70
2021/04/29 13:29:28;;;;;;;;;;;30.40;28.90;;;;;;5052315;28;74877;-67
2021/04/29 13:31:54;;;;;;;;;;;31.70;28.70;;;;;;5051992;28;74965;-71
2021/04/29 13:34:20;;;;;;;;;;;31.90;27.80;;;;;;5052011;28;75930;-70
2021/04/29 13:36:46;;;;;;;;;;;31.70;28.10;;;;;;5051484;27;75116;-71
2021/04/29 13:39:11;;;;;;;;;;;31.50;27.90;;;;;;5054667;27;75201;-70
2021/04/29 13:41:39;;;;;;;;;;;30.00;28.50;;;;;;5054598;27;74522;-70
2021/04/29 13:44:05;;;;;;;;;;;30.00;30.20;;;;;;5053537;28;76455;-70
2021/04/29 13:46:31;;;;;;;;;;;29.50;30.30;;;;;;5054482;27;75436;-71
2021/04/29 13:48:56;;;;;;;;;;;30.30;29.80;;;;;;5053110;28;76380;-70
2021/04/29 13:51:22;;;;;;;;;;;30.30;29.50;;;;;;5054613;28;75147;-71
2021/04/29 13:53:47;;;;;;;;;;;30.00;29.10;;;;;;5052703;28;75191;-70
2021/04/29 13:56:13;;;;;;;;;;;30.30;28.00;;;;;;5053615;28;74915;-66
2021/04/29 13:58:39;;;;;;;;;;;31.60;28.20;;;;;;5055375;27;75164;-70
2021/04/29 14:01:08;;;;;;;;;;;32.50;25.90;;;;;;5053901;28;78028;-70
2021/04/29 14:03:34;;;;;;;;;;;33.40;25.40;;;;;;5054332;28;75187;-65
2021/04/29 14:05:59;;;;;;;;;;;33.80;25.60;;;;;;5054228;27;75003;-71
2021/04/29 14:08:25;;;;;;;;;;;33.50;26.20;;;;;;5054607;27;75147;-67
2021/04/29 14:10:51;;;;;;;;;;;32.70;25.80;;;;;;5055044;27;75151;-69
2021/04/29 14:13:16;;;;;;;;;;;32.20;26.00;;;;;;5053852;27;74863;-70